Airport ICAO


11:58 UTC

27°C

Clear skies


An affordable passengers' Moving Map for your aircraft. Made for the iPad and the iPhone
More information here

EGWU Northolt


Northolt UNITED KINGDOM   VFR CAVOK


METAR EGWU 191150Z 14004KT CAVOK 27/09 Q1023 NOSIG 0h08min

TAF EGWU 191033Z 1912/2006 19005KT CAVOK 1h25min





NOTAMS

OPEN